Time;durP1;ratioP1;P1;durP2;ratioP2;P2;SDS_P1;SDS_P2;PMS_P1;PMS_P2;Temp;Humidity;BMP_temperature;BMP_pressure;BME280_temperature;BME280_humidity;BME280_pressure;Samples;Min_cycle;Max_cycle;Signal;HPM_P1;HPM_P2
2023/12/02 00:00:24;;;;;;;2.47;2.30;;;;;;;;;;1050101;28;20028;-71
2023/12/02 00:00:54;;;;;;;1.83;1.73;;;;;;;;;;1050149;28;20112;-71
2023/12/02 00:01:25;;;;;;;8.57;2.13;;;;;;;;;;1050170;28;20031;-71
2023/12/02 00:01:55;;;;;;;1.50;1.40;;;;;;;;;;1050316;28;20652;-71
2023/12/02 00:02:25;;;;;;;1.90;1.80;;;;;;;;;;1050245;28;20028;-71
2023/12/02 00:02:56;;;;;;;2.65;2.47;;;;;;;;;;1050188;28;20486;-71
2023/12/02 00:03:26;;;;;;;3.55;1.83;;;;;;;;;;1049679;28;20025;-71
2023/12/02 00:03:57;;;;;;;3.70;3.42;;;;;;;;;;1050135;28;20397;-71
2023/12/02 00:04:27;;;;;;;3.72;2.97;;;;;;;;;;1045773;28;20064;-71
2023/12/02 00:04:58;;;;;;;0.70;0.70;;;;;;;;;;1045275;28;20116;-71
2023/12/02 00:05:28;;;;;;;5.22;1.98;;;;;;;;;;1045924;28;20465;-71
2023/12/02 00:05:58;;;;;;;1.50;1.40;;;;;;;;;;1045773;28;20119;-71
2023/12/02 00:06:29;;;;;;;1.65;1.55;;;;;;;;;;1050193;28;20026;-71
2023/12/02 00:06:59;;;;;;;3.40;3.20;;;;;;;;;;1050938;28;20020;-71
2023/12/02 00:07:30;;;;;;;3.58;3.28;;;;;;;;;;1049588;28;20021;-71
2023/12/02 00:08:00;;;;;;;12.05;3.80;;;;;;;;;;1050159;28;20024;-71
2023/12/02 00:08:31;;;;;;;0.80;0.80;;;;;;;;;;1050273;28;20024;-71
2023/12/02 00:09:01;;;;;;;1.45;1.35;;;;;;;;;;1050219;28;20024;-71
2023/12/02 00:09:32;;;;;;;6.38;1.27;;;;;;;;;;1050207;28;20493;-71
2023/12/02 00:10:02;;;;;;;13.63;4.78;;;;;;;;;;1050173;28;20031;-71
2023/12/02 00:10:33;;;;;;;2.10;1.98;;;;;;;;;;1050189;28;20024;-71
2023/12/02 00:11:03;;;;;;;3.45;2.85;;;;;;;;;;1050069;28;20020;-71
2023/12/02 00:11:34;;;;;;;1.65;1.55;;;;;;;;;;1050175;28;20024;-71
2023/12/02 00:12:04;;;;;;;1.63;1.52;;;;;;;;;;1050198;28;20028;-71
2023/12/02 00:12:35;;;;;;;0.63;0.63;;;;;;;;;;1050223;28;20024;-71
2023/12/02 00:13:05;;;;;;;3.22;3.00;;;;;;;;;;1050147;28;20020;-71
2023/12/02 00:13:36;;;;;;;1.70;1.60;;;;;;;;;;1050254;28;20046;-71
2023/12/02 00:14:06;;;;;;;2.90;1.45;;;;;;;;;;1050318;28;20149;-71
2023/12/02 00:14:36;;;;;;;1.80;1.70;;;;;;;;;;1048933;28;20020;-71
2023/12/02 00:15:07;;;;;;;0.47;0.47;;;;;;;;;;1049249;28;20036;-71
2023/12/02 00:15:37;;;;;;;3.10;2.80;;;;;;;;;;1045665;28;20075;-71
2023/12/02 00:16:08;;;;;;;3.08;2.60;;;;;;;;;;1045614;28;20024;-71
2023/12/02 00:16:38;;;;;;;1.00;1.00;;;;;;;;;;1045580;28;20027;-71
2023/12/02 00:17:09;;;;;;;3.75;2.88;;;;;;;;;;1046170;28;20032;-71
2023/12/02 00:17:39;;;;;;;13.55;5.78;;;;;;;;;;1050093;28;20424;-71
2023/12/02 00:18:10;;;;;;;3.92;3.40;;;;;;;;;;1050191;28;20070;-71
2023/12/02 00:18:40;;;;;;;2.33;2.13;;;;;;;;;;1050107;28;20012;-71
2023/12/02 00:19:11;;;;;;;4.00;2.08;;;;;;;;;;1050242;28;20035;-71
2023/12/02 00:19:41;;;;;;;5.95;2.05;;;;;;;;;;1050082;28;20103;-71
2023/12/02 00:20:12;;;;;;;2.47;2.28;;;;;;;;;;1050388;28;20055;-71
2023/12/02 00:20:42;;;;;;;0.73;0.73;;;;;;;;;;1049998;28;20020;-71
2023/12/02 00:21:13;;;;;;;9.45;4.78;;;;;;;;;;1050240;28;20028;-71
2023/12/02 00:21:43;;;;;;;2.42;1.17;;;;;;;;;;1048860;28;20050;-71
2023/12/02 00:22:13;;;;;;;8.23;2.75;;;;;;;;;;1049833;28;20028;-71
2023/12/02 00:22:44;;;;;;;3.92;3.22;;;;;;;;;;1049974;28;20030;-71
2023/12/02 00:23:15;;;;;;;6.38;4.57;;;;;;;;;;1049823;28;20031;-71
2023/12/02 00:23:45;;;;;;;2.10;2.00;;;;;;;;;;1049947;28;20025;-71
2023/12/02 00:24:15;;;;;;;3.47;3.22;;;;;;;;;;1050397;28;20390;-71
2023/12/02 00:24:46;;;;;;;2.45;2.35;;;;;;;;;;1049893;28;20016;-71
2023/12/02 00:25:16;;;;;;;3.35;2.92;;;;;;;;;;1045692;28;20129;-72
2023/12/02 00:25:47;;;;;;;1.55;1.45;;;;;;;;;;1045663;28;20024;-72
2023/12/02 00:26:17;;;;;;;1.98;1.80;;;;;;;;;;1045784;28;20102;-72
2023/12/02 00:26:47;;;;;;;5.57;5.15;;;;;;;;;;1045641;28;20032;-72
2023/12/02 00:27:18;;;;;;;2.25;2.05;;;;;;;;;;1050349;28;20384;-72
2023/12/02 00:27:49;;;;;;;1.35;1.25;;;;;;;;;;1049957;28;20020;-72
2023/12/02 00:28:20;;;;;;;2.70;2.50;;;;;;;;;;1050276;28;20058;-72
2023/12/02 00:28:51;;;;;;;1.58;1.48;;;;;;;;;;1045396;28;20024;-72
2023/12/02 00:29:21;;;;;;;2.95;2.75;;;;;;;;;;1045773;28;20024;-72
2023/12/02 00:29:52;;;;;;;2.08;1.65;;;;;;;;;;1044649;28;20032;-72
2023/12/02 00:30:22;;;;;;;2.10;1.90;;;;;;;;;;1045878;28;20029;-72
2023/12/02 00:30:53;;;;;;;2.20;2.08;;;;;;;;;;1050002;28;20529;-72
2023/12/02 00:31:23;;;;;;;4.10;2.50;;;;;;;;;;1050196;28;20146;-72
2023/12/02 00:31:53;;;;;;;2.58;2.38;;;;;;;;;;1049992;28;20024;-72
2023/12/02 00:32:24;;;;;;;1.17;1.17;;;;;;;;;;1050133;28;20568;-72
2023/12/02 00:32:54;;;;;;;2.47;2.35;;;;;;;;;;1050198;28;20040;-72
2023/12/02 00:33:25;;;;;;;5.43;3.40;;;;;;;;;;1050079;28;20025;-72
2023/12/02 00:33:57;;;;;;;2.95;2.72;;;;;;;;;;1049683;28;20028;-72
2023/12/02 00:34:27;;;;;;;4.43;3.65;;;;;;;;;;1050357;28;20035;-72
2023/12/02 00:34:58;;;;;;;3.65;3.35;;;;;;;;;;1049873;28;20016;-72
2023/12/02 00:35:28;;;;;;;3.55;1.52;;;;;;;;;;1049998;28;20012;-72
2023/12/02 00:35:58;;;;;;;3.20;2.90;;;;;;;;;;1045590;28;20021;-72
2023/12/02 00:36:31;;;;;;;4.00;3.58;;;;;;;;;;1045700;28;20037;-72
2023/12/02 00:37:01;;;;;;;3.80;2.83;;;;;;;;;;1045505;28;20396;-72
2023/12/02 00:37:32;;;;;;;3.28;3.00;;;;;;;;;;1046106;28;20107;-72
2023/12/02 00:38:02;;;;;;;2.05;1.95;;;;;;;;;;1049022;28;20567;-72
2023/12/02 00:38:33;;;;;;;1.88;1.77;;;;;;;;;;1050067;28;20459;-72
2023/12/02 00:39:03;;;;;;;4.18;3.45;;;;;;;;;;1050851;28;20020;-72
2023/12/02 00:39:34;;;;;;;5.75;2.08;;;;;;;;;;1050060;28;20021;-72
2023/12/02 00:40:05;;;;;;;1.48;1.33;;;;;;;;;;1049718;28;20023;-72
2023/12/02 00:40:36;;;;;;;6.70;1.65;;;;;;;;;;1049925;28;20024;-72
2023/12/02 00:41:10;;;;;;;1.88;1.77;;;;;;;;;;1050237;28;20020;-72
2023/12/02 00:41:41;;;;;;;13.35;4.88;;;;;;;;;;1049288;28;20016;-72
2023/12/02 00:42:11;;;;;;;9.70;7.63;;;;;;;;;;1050947;28;20366;-72
2023/12/02 00:42:42;;;;;;;3.20;2.63;;;;;;;;;;1050035;28;20105;-72
2023/12/02 00:43:12;;;;;;;3.22;3.00;;;;;;;;;;1045703;28;20123;-72
2023/12/02 00:43:42;;;;;;;2.63;2.42;;;;;;;;;;1045364;28;20033;-72
2023/12/02 00:44:13;;;;;;;2.45;2.25;;;;;;;;;;1045834;28;20017;-72
2023/12/02 00:44:43;;;;;;;1.55;1.45;;;;;;;;;;1045404;28;20043;-72
2023/12/02 00:45:14;;;;;;;1.42;1.15;;;;;;;;;;1050292;28;20020;-72
2023/12/02 00:45:44;;;;;;;5.25;3.00;;;;;;;;;;1050047;28;20052;-72
2023/12/02 00:46:15;;;;;;;2.83;2.05;;;;;;;;;;1049509;28;20082;-72
2023/12/02 00:46:45;;;;;;;2.10;1.90;;;;;;;;;;1049675;28;20025;-72
2023/12/02 00:47:16;;;;;;;3.17;2.85;;;;;;;;;;1048738;28;20031;-72
2023/12/02 00:47:46;;;;;;;2.97;2.78;;;;;;;;;;1049670;28;20055;-72
2023/12/02 00:48:17;;;;;;;2.58;2.13;;;;;;;;;;1050479;28;20024;-72
2023/12/02 00:48:48;;;;;;;21.17;3.45;;;;;;;;;;1049887;28;20424;-72
2023/12/02 00:49:18;;;;;;;4.90;2.03;;;;;;;;;;1049221;28;20020;-72
2023/12/02 00:49:48;;;;;;;1.85;1.23;;;;;;;;;;1049869;28;20102;-72
2023/12/02 00:50:19;;;;;;;1.88;1.77;;;;;;;;;;1050251;28;20030;-72
2023/12/02 00:50:49;;;;;;;6.28;4.35;;;;;;;;;;1045326;28;20028;-72
2023/12/02 00:51:20;;;;;;;6.20;3.88;;;;;;;;;;1045630;28;20039;-72
2023/12/02 00:51:50;;;;;;;5.28;3.47;;;;;;;;;;1045514;28;20033;-72
2023/12/02 00:52:21;;;;;;;7.57;3.88;;;;;;;;;;1045962;28;20024;-72
2023/12/02 00:52:51;;;;;;;11.18;5.00;;;;;;;;;;1049909;28;20023;-72
2023/12/02 00:53:21;;;;;;;7.03;3.75;;;;;;;;;;1049225;28;20019;-72
2023/12/02 00:53:52;;;;;;;5.45;4.63;;;;;;;;;;1048755;28;20030;-72
2023/12/02 00:54:22;;;;;;;5.85;3.88;;;;;;;;;;1044435;28;20119;-72
2023/12/02 00:54:53;;;;;;;4.05;3.30;;;;;;;;;;1045606;28;20051;-72
2023/12/02 00:55:23;;;;;;;7.13;4.32;;;;;;;;;;1041300;28;20055;-72
2023/12/02 00:55:54;;;;;;;8.32;3.70;;;;;;;;;;1041484;28;20048;-72
2023/12/02 00:56:24;;;;;;;3.55;2.30;;;;;;;;;;1045668;28;20055;-72
2023/12/02 00:56:55;;;;;;;16.63;7.18;;;;;;;;;;1045593;28;20075;-72
2023/12/02 00:57:25;;;;;;;3.53;2.70;;;;;;;;;;1050037;28;20023;-72
2023/12/02 00:57:55;;;;;;;15.75;6.78;;;;;;;;;;1049956;28;20030;-72
2023/12/02 00:58:26;;;;;;;9.05;4.78;;;;;;;;;;1050065;28;20020;-72
2023/12/02 00:58:56;;;;;;;9.35;5.95;;;;;;;;;;1050065;28;20024;-72
2023/12/02 00:59:27;;;;;;;15.15;5.28;;;;;;;;;;1044734;28;20119;-72
2023/12/02 00:59:57;;;;;;;29.35;6.25;;;;;;;;;;1045443;28;20151;-72
2023/12/02 01:00:28;;;;;;;14.25;6.43;;;;;;;;;;1045366;28;20017;-72
2023/12/02 01:00:58;;;;;;;20.67;6.05;;;;;;;;;;1045593;28;20115;-72
2023/12/02 01:01:28;;;;;;;13.05;7.57;;;;;;;;;;1050040;28;20107;-72
2023/12/02 01:01:59;;;;;;;25.30;6.75;;;;;;;;;;1049923;28;20025;-72
2023/12/02 01:02:29;;;;;;;10.15;6.80;;;;;;;;;;1044480;28;20079;-72
2023/12/02 01:03:00;;;;;;;29.60;4.80;;;;;;;;;;1045400;28;20024;-72
2023/12/02 01:03:30;;;;;;;17.73;3.90;;;;;;;;;;1045463;28;20025;-71
2023/12/02 01:04:01;;;;;;;3.40;1.98;;;;;;;;;;1045628;28;20024;-71
2023/12/02 01:04:31;;;;;;;4.05;2.42;;;;;;;;;;1049627;28;20015;-71
2023/12/02 01:05:02;;;;;;;4.45;1.63;;;;;;;;;;1045073;28;20029;-71
2023/12/02 01:05:33;;;;;;;2.28;2.10;;;;;;;;;;1046593;28;20090;-71
2023/12/02 01:06:03;;;;;;;2.00;1.85;;;;;;;;;;1045539;28;20491;-71
2023/12/02 01:06:34;;;;;;;10.77;2.90;;;;;;;;;;1046199;28;20505;-71
2023/12/02 01:07:04;;;;;;;3.38;2.78;;;;;;;;;;1050348;28;20047;-71
2023/12/02 01:07:34;;;;;;;5.15;2.17;;;;;;;;;;1048802;28;20127;-71
2023/12/02 01:08:05;;;;;;;5.40;2.92;;;;;;;;;;1048710;28;20031;-71
2023/12/02 01:08:35;;;;;;;0.90;0.88;;;;;;;;;;1049523;28;20051;-71
2023/12/02 01:09:06;;;;;;;4.03;2.97;;;;;;;;;;1050361;28;20024;-71
2023/12/02 01:09:36;;;;;;;2.40;1.50;;;;;;;;;;1048458;28;20021;-71
2023/12/02 01:10:07;;;;;;;7.47;4.30;;;;;;;;;;1050155;28;20020;-71
2023/12/02 01:10:38;;;;;;;9.55;2.70;;;;;;;;;;1049987;28;20028;-71
2023/12/02 01:11:08;;;;;;;2.92;2.72;;;;;;;;;;1049414;28;20444;-71
2023/12/02 01:11:39;;;;;;;2.00;1.90;;;;;;;;;;1048295;28;20028;-71
2023/12/02 01:12:09;;;;;;;3.92;3.53;;;;;;;;;;1044656;28;20036;-71
2023/12/02 01:12:40;;;;;;;4.03;2.28;;;;;;;;;;1044734;28;20673;-71
2023/12/02 01:13:10;;;;;;;7.35;6.10;;;;;;;;;;1046013;28;20465;-71
2023/12/02 01:13:41;;;;;;;11.32;4.30;;;;;;;;;;1045901;28;20013;-71
2023/12/02 01:14:11;;;;;;;5.80;2.47;;;;;;;;;;1049643;28;20028;-71
2023/12/02 01:14:41;;;;;;;3.38;2.17;;;;;;;;;;1049309;28;20012;-71
2023/12/02 01:15:12;;;;;;;5.22;1.58;;;;;;;;;;1049800;28;20103;-71
2023/12/02 01:15:42;;;;;;;8.77;3.28;;;;;;;;;;1050308;28;20020;-71
2023/12/02 01:16:13;;;;;;;18.20;3.95;;;;;;;;;;1050367;28;20024;-71
2023/12/02 01:16:43;;;;;;;12.65;5.45;;;;;;;;;;1050109;28;20016;-71
2023/12/02 01:17:14;;;;;;;18.50;8.02;;;;;;;;;;1048804;28;20038;-71
2023/12/02 01:17:44;;;;;;;1.75;1.63;;;;;;;;;;1048442;28;20073;-71
2023/12/02 01:18:14;;;;;;;3.80;3.33;;;;;;;;;;1048573;28;20434;-71
2023/12/02 01:18:45;;;;;;;9.45;6.45;;;;;;;;;;1047586;28;20071;-71
2023/12/02 01:19:15;;;;;;;6.18;3.90;;;;;;;;;;1048444;28;20040;-71
2023/12/02 01:19:46;;;;;;;4.60;4.22;;;;;;;;;;1049487;28;20012;-71
2023/12/02 01:20:16;;;;;;;4.22;3.88;;;;;;;;;;1048241;28;20052;-71
2023/12/02 01:20:47;;;;;;;1.00;0.95;;;;;;;;;;1049245;28;20056;-71
2023/12/02 01:21:17;;;;;;;8.15;5.15;;;;;;;;;;1049248;28;20119;-71
2023/12/02 01:21:48;;;;;;;6.82;4.65;;;;;;;;;;1049994;28;20013;-71
2023/12/02 01:22:18;;;;;;;8.05;3.88;;;;;;;;;;1048336;28;20032;-71
2023/12/02 01:22:48;;;;;;;16.48;4.45;;;;;;;;;;1048498;28;20078;-71
2023/12/02 01:23:19;;;;;;;3.25;2.63;;;;;;;;;;1049357;28;20078;-71
2023/12/02 01:23:49;;;;;;;5.28;3.15;;;;;;;;;;1048941;28;20025;-71
2023/12/02 01:24:20;;;;;;;7.63;2.50;;;;;;;;;;1049268;28;20021;-71
2023/12/02 01:24:50;;;;;;;11.55;2.60;;;;;;;;;;1049278;28;20026;-71
2023/12/02 01:25:21;;;;;;;9.10;4.25;;;;;;;;;;1049119;28;20460;-71
2023/12/02 01:25:52;;;;;;;5.75;3.45;;;;;;;;;;1046485;28;20020;-71
2023/12/02 01:26:23;;;;;;;6.57;2.42;;;;;;;;;;1048630;28;20027;-71
2023/12/02 01:26:53;;;;;;;15.57;4.68;;;;;;;;;;1047456;28;20055;-71
2023/12/02 01:27:24;;;;;;;5.93;3.03;;;;;;;;;;1047861;28;20028;-71
2023/12/02 01:27:54;;;;;;;4.30;2.90;;;;;;;;;;1042321;28;20020;-71
2023/12/02 01:28:25;;;;;;;5.40;4.90;;;;;;;;;;1044821;28;20051;-71
2023/12/02 01:28:56;;;;;;;10.15;6.15;;;;;;;;;;1045503;28;20021;-71
2023/12/02 01:29:26;;;;;;;4.55;3.97;;;;;;;;;;1042285;28;20060;-71
2023/12/02 01:29:56;;;;;;;9.88;4.47;;;;;;;;;;1045536;28;20551;-71
2023/12/02 01:30:27;;;;;;;25.17;4.72;;;;;;;;;;1045160;28;20146;-71
2023/12/02 01:30:58;;;;;;;8.48;2.75;;;;;;;;;;1040622;28;20025;-71
2023/12/02 01:31:29;;;;;;;3.50;2.97;;;;;;;;;;1044957;28;20025;-71
2023/12/02 01:31:59;;;;;;;9.73;3.38;;;;;;;;;;1044062;28;20059;-71
2023/12/02 01:32:30;;;;;;;6.63;4.38;;;;;;;;;;1044293;28;20021;-71
2023/12/02 01:33:00;;;;;;;7.30;5.97;;;;;;;;;;1046523;28;20492;-71
2023/12/02 01:33:31;;;;;;;4.63;4.15;;;;;;;;;;1042961;28;20476;-71
2023/12/02 01:34:01;;;;;;;5.47;4.03;;;;;;;;;;1044507;28;20469;-71
2023/12/02 01:34:31;;;;;;;12.90;5.32;;;;;;;;;;1045336;28;20560;-71
2023/12/02 01:35:02;;;;;;;6.00;3.60;;;;;;;;;;1044249;28;20033;-71
2023/12/02 01:35:32;;;;;;;13.85;4.40;;;;;;;;;;1048616;28;20112;-71
2023/12/02 01:36:04;;;;;;;25.20;5.82;;;;;;;;;;1045096;28;20087;-71
2023/12/02 01:36:34;;;;;;;6.00;5.40;;;;;;;;;;1047724;28;20025;-72
2023/12/02 01:37:05;;;;;;;4.82;4.38;;;;;;;;;;1046886;28;20134;-72
2023/12/02 01:37:35;;;;;;;11.75;6.78;;;;;;;;;;1043312;28;20481;-72
2023/12/02 01:38:05;;;;;;;12.95;6.15;;;;;;;;;;1043694;28;20025;-70
2023/12/02 01:38:36;;;;;;;13.48;5.18;;;;;;;;;;1045340;28;20024;-70
2023/12/02 01:39:06;;;;;;;13.88;6.25;;;;;;;;;;1044731;28;20081;-72
2023/12/02 01:39:37;;;;;;;3.65;2.88;;;;;;;;;;1048494;28;20047;-71
2023/12/02 01:40:07;;;;;;;2.30;2.10;;;;;;;;;;1048874;28;20029;-71
2023/12/02 01:40:38;;;;;;;20.33;6.72;;;;;;;;;;1044672;28;20617;-71
2023/12/02 01:41:08;;;;;;;7.28;4.68;;;;;;;;;;1046188;28;20024;-72
2023/12/02 01:41:39;;;;;;;10.88;5.93;;;;;;;;;;1045234;28;20423;-72
2023/12/02 01:42:11;;;;;;;6.03;4.72;;;;;;;;;;1045180;28;20423;-72
2023/12/02 01:42:41;;;;;;;7.03;3.70;;;;;;;;;;1048385;28;20074;-72
2023/12/02 01:43:25;;;;;;;6.53;3.45;;;;;;;;;;1045652;28;20419;-72
2023/12/02 01:43:55;;;;;;;2.47;2.33;;;;;;;;;;1045599;28;20052;-72
2023/12/02 01:44:26;;;;;;;3.72;3.03;;;;;;;;;;1043971;28;20021;-70
2023/12/02 01:44:57;;;;;;;3.20;3.00;;;;;;;;;;1040093;28;20041;-71
2023/12/02 01:45:27;;;;;;;6.72;3.72;;;;;;;;;;1044574;28;20480;-71
2023/12/02 01:45:58;;;;;;;4.20;3.80;;;;;;;;;;1043412;28;20393;-71
2023/12/02 01:46:29;;;;;;;15.75;4.80;;;;;;;;;;1042560;28;20025;-71
2023/12/02 01:46:59;;;;;;;4.30;2.80;;;;;;;;;;1042161;28;20107;-71
2023/12/02 01:47:30;;;;;;;9.93;4.28;;;;;;;;;;1042569;28;20025;-71
2023/12/02 01:48:01;;;;;;;6.85;4.18;;;;;;;;;;1042531;28;20590;-71
2023/12/02 01:48:33;;;;;;;19.63;3.15;;;;;;;;;;1044210;28;20120;-71
2023/12/02 01:49:05;;;;;;;5.57;5.00;;;;;;;;;;1043615;28;20025;-71
2023/12/02 01:49:36;;;;;;;13.07;4.72;;;;;;;;;;1047149;28;20032;-71
2023/12/02 01:50:08;;;;;;;12.43;4.15;;;;;;;;;;1047893;28;20500;-71
2023/12/02 01:50:38;;;;;;;9.50;4.90;;;;;;;;;;1045577;28;20034;-71
2023/12/02 01:51:12;;;;;;;18.70;4.53;;;;;;;;;;1047871;28;20099;-71
2023/12/02 01:51:42;;;;;;;7.15;2.90;;;;;;;;;;1046507;28;20123;-71
2023/12/02 01:52:13;;;;;;;6.95;5.28;;;;;;;;;;1048564;28;20024;-71
2023/12/02 01:52:44;;;;;;;3.03;2.83;;;;;;;;;;1047621;28;20020;-71
2023/12/02 01:53:14;;;;;;;8.82;4.28;;;;;;;;;;1047056;28;20024;-72
2023/12/02 01:53:45;;;;;;;4.72;3.00;;;;;;;;;;1047131;28;20392;-71
2023/12/02 01:54:15;;;;;;;3.22;2.67;;;;;;;;;;1048728;28;20059;-70
2023/12/02 01:54:46;;;;;;;12.98;5.20;;;;;;;;;;1048149;28;20056;-73
2023/12/02 01:55:16;;;;;;;9.88;3.92;;;;;;;;;;1049547;28;20032;-71
2023/12/02 01:55:47;;;;;;;3.45;3.15;;;;;;;;;;1043666;28;20021;-72
2023/12/02 01:56:18;;;;;;;4.60;2.58;;;;;;;;;;1044279;28;20081;-71
2023/12/02 01:56:48;;;;;;;15.10;5.32;;;;;;;;;;1043450;28;20025;-71
2023/12/02 01:57:20;;;;;;;10.50;5.05;;;;;;;;;;1043814;28;20089;-71
2023/12/02 01:57:50;;;;;;;1.08;1.02;;;;;;;;;;1043477;28;20025;-71
2023/12/02 01:58:21;;;;;;;8.43;5.75;;;;;;;;;;1041149;28;20504;-72
2023/12/02 01:58:52;;;;;;;4.60;3.15;;;;;;;;;;1039929;28;20560;-71
2023/12/02 01:59:22;;;;;;;12.80;4.85;;;;;;;;;;1035893;28;20026;-72
2023/12/02 01:59:54;;;;;;;4.28;2.40;;;;;;;;;;1039806;28;20021;-72
2023/12/02 02:00:24;;;;;;;7.28;4.50;;;;;;;;;;1040340;28;20780;-71
2023/12/02 02:00:55;;;;;;;4.65;3.80;;;;;;;;;;1042684;28;20036;-72
2023/12/02 02:01:26;;;;;;;21.63;6.22;;;;;;;;;;1044465;28;20024;-72
2023/12/02 02:01:56;;;;;;;8.98;4.35;;;;;;;;;;1044239;28;20024;-70
2023/12/02 02:02:27;;;;;;;5.80;5.20;;;;;;;;;;1045925;28;20024;-71
2023/12/02 02:02:57;;;;;;;15.93;4.43;;;;;;;;;;1049701;28;20020;-72
2023/12/02 02:03:27;;;;;;;9.77;7.88;;;;;;;;;;1048483;28;20484;-71
2023/12/02 02:03:59;;;;;;;7.70;4.72;;;;;;;;;;1049312;28;20398;-71
2023/12/02 02:04:29;;;;;;;3.38;3.10;;;;;;;;;;1049590;28;20024;-71
2023/12/02 02:05:00;;;;;;;9.00;2.58;;;;;;;;;;1044638;28;20124;-71
2023/12/02 02:05:30;;;;;;;6.82;4.93;;;;;;;;;;1044351;28;20057;-72
2023/12/02 02:06:01;;;;;;;12.95;4.15;;;;;;;;;;1044534;28;20016;-71
2023/12/02 02:06:32;;;;;;;5.13;3.05;;;;;;;;;;1043977;28;20033;-71
2023/12/02 02:07:03;;;;;;;10.45;5.40;;;;;;;;;;1043332;28;20032;-71
2023/12/02 02:07:33;;;;;;;2.45;2.25;;;;;;;;;;1042749;28;20159;-71
2023/12/02 02:08:04;;;;;;;14.80;6.22;;;;;;;;;;1044459;28;20107;-71
2023/12/02 02:08:34;;;;;;;9.38;4.00;;;;;;;;;;1043092;28;20020;-71
2023/12/02 02:09:05;;;;;;;6.00;3.20;;;;;;;;;;1043986;28;20568;-71
2023/12/02 02:09:44;;;;;;;6.97;4.80;;;;;;;;;;1043881;28;20032;-71
2023/12/02 02:10:14;;;;;;;8.57;4.60;;;;;;;;;;1045456;28;20021;-71
2023/12/02 02:10:45;;;;;;;16.85;7.82;;;;;;;;;;1045606;28;20511;-71
2023/12/02 02:11:15;;;;;;;8.45;3.03;;;;;;;;;;1047897;28;20017;-71
2023/12/02 02:11:48;;;;;;;13.07;4.40;;;;;;;;;;1047149;28;20032;-71
2023/12/02 02:12:19;;;;;;;7.75;3.47;;;;;;;;;;1049398;28;20032;-72
2023/12/02 02:12:50;;;;;;;4.15;3.78;;;;;;;;;;1048835;28;20067;-71
2023/12/02 02:13:20;;;;;;;12.60;4.25;;;;;;;;;;1049425;28;20033;-71
2023/12/02 02:13:51;;;;;;;5.07;3.55;;;;;;;;;;1049964;28;20028;-71
2023/12/02 02:14:21;;;;;;;19.75;4.78;;;;;;;;;;1045915;28;20028;-71
2023/12/02 02:14:52;;;;;;;11.70;5.18;;;;;;;;;;1043917;28;20019;-71
2023/12/02 02:15:22;;;;;;;2.78;2.47;;;;;;;;;;1045248;28;20024;-71
2023/12/02 02:15:53;;;;;;;5.68;3.95;;;;;;;;;;1044393;28;20044;-71
2023/12/02 02:16:24;;;;;;;8.57;5.97;;;;;;;;;;1049402;28;20024;-71
2023/12/02 02:16:54;;;;;;;6.47;4.53;;;;;;;;;;1049312;28;20024;-71
2023/12/02 02:17:25;;;;;;;4.50;3.83;;;;;;;;;;1048789;28;20024;-71
2023/12/02 02:17:55;;;;;;;4.63;4.03;;;;;;;;;;1049162;28;20024;-71
2023/12/02 02:18:28;;;;;;;4.65;1.90;;;;;;;;;;1045070;28;20025;-71
2023/12/02 02:18:58;;;;;;;7.10;5.85;;;;;;;;;;1045587;28;20026;-71
2023/12/02 02:19:29;;;;;;;11.55;4.80;;;;;;;;;;1044308;28;20017;-71
2023/12/02 02:20:00;;;;;;;5.55;5.05;;;;;;;;;;1041350;28;20040;-71
2023/12/02 02:20:30;;;;;;;4.75;4.28;;;;;;;;;;1045045;28;20017;-71
2023/12/02 02:21:01;;;;;;;3.25;2.42;;;;;;;;;;1043990;28;20070;-71
2023/12/02 02:21:31;;;;;;;7.38;4.53;;;;;;;;;;1044256;28;20021;-71
2023/12/02 02:22:02;;;;;;;8.85;5.63;;;;;;;;;;1049514;28;20036;-71
2023/12/02 02:22:32;;;;;;;4.72;4.38;;;;;;;;;;1048441;28;20024;-71
2023/12/02 02:23:03;;;;;;;5.30;3.25;;;;;;;;;;1049460;28;20020;-71
2023/12/02 02:23:34;;;;;;;5.80;4.00;;;;;;;;;;1049245;28;20079;-71
2023/12/02 02:24:05;;;;;;;7.80;4.82;;;;;;;;;;1049824;28;20115;-71
2023/12/02 02:24:36;;;;;;;16.17;6.28;;;;;;;;;;1043580;28;20079;-71
2023/12/02 02:25:06;;;;;;;13.05;7.30;;;;;;;;;;1044291;28;20027;-71
2023/12/02 02:25:37;;;;;;;6.43;4.38;;;;;;;;;;1043368;28;20025;-71
2023/12/02 02:26:07;;;;;;;4.25;3.03;;;;;;;;;;1045111;28;20534;-71
2023/12/02 02:26:37;;;;;;;8.30;4.65;;;;;;;;;;1044872;28;20488;-71
2023/12/02 02:27:08;;;;;;;18.58;8.77;;;;;;;;;;1044114;28;20480;-71
2023/12/02 02:27:38;;;;;;;4.80;4.10;;;;;;;;;;1044095;28;20387;-71
2023/12/02 02:28:09;;;;;;;13.90;6.20;;;;;;;;;;1044268;28;20058;-71
2023/12/02 02:28:39;;;;;;;19.15;5.55;;;;;;;;;;1048596;28;20028;-71
2023/12/02 02:29:10;;;;;;;9.32;5.97;;;;;;;;;;1048850;28;20023;-71
2023/12/02 02:29:40;;;;;;;11.85;3.03;;;;;;;;;;1048057;28;20131;-71
2023/12/02 02:30:11;;;;;;;9.25;5.60;;;;;;;;;;1049816;28;20063;-71
2023/12/02 02:30:41;;;;;;;13.20;5.05;;;;;;;;;;1048528;28;21217;-71
2023/12/02 02:31:12;;;;;;;6.13;4.22;;;;;;;;;;1049321;28;20028;-71
2023/12/02 02:31:42;;;;;;;7.65;5.18;;;;;;;;;;1048465;28;20020;-71
2023/12/02 02:32:12;;;;;;;13.80;5.78;;;;;;;;;;1048339;28;20027;-71
2023/12/02 02:32:43;;;;;;;12.25;5.18;;;;;;;;;;1048730;28;20032;-71
2023/12/02 02:33:14;;;;;;;11.05;4.40;;;;;;;;;;1049220;28;20495;-71
2023/12/02 02:33:44;;;;;;;16.58;3.28;;;;;;;;;;1048749;28;20028;-71
2023/12/02 02:34:15;;;;;;;3.83;3.53;;;;;;;;;;1049017;28;20020;-71
2023/12/02 02:34:45;;;;;;;8.25;4.78;;;;;;;;;;1048118;28;20020;-71
2023/12/02 02:35:16;;;;;;;15.48;6.82;;;;;;;;;;1048627;28;20107;-71
2023/12/02 02:35:47;;;;;;;11.93;6.82;;;;;;;;;;1049648;28;20036;-72
2023/12/02 02:36:18;;;;;;;8.55;4.82;;;;;;;;;;1050004;28;20515;-71
2023/12/02 02:36:48;;;;;;;12.50;5.03;;;;;;;;;;1048571;28;20020;-71
2023/12/02 02:37:19;;;;;;;15.65;3.25;;;;;;;;;;1048134;28;20108;-71
2023/12/02 02:37:49;;;;;;;18.13;8.68;;;;;;;;;;1042864;28;20028;-71
2023/12/02 02:38:20;;;;;;;10.35;3.58;;;;;;;;;;1044033;28;20115;-71
2023/12/02 02:38:50;;;;;;;6.95;5.60;;;;;;;;;;1043903;28;20028;-71
2023/12/02 02:39:21;;;;;;;5.38;4.55;;;;;;;;;;1043149;28;20025;-71
2023/12/02 02:39:51;;;;;;;5.53;3.53;;;;;;;;;;1048220;28;20563;-71
2023/12/02 02:40:24;;;;;;;11.65;3.92;;;;;;;;;;1047464;28;20118;-71
2023/12/02 02:40:55;;;;;;;9.60;5.25;;;;;;;;;;1048784;28;20028;-71
2023/12/02 02:41:25;;;;;;;12.45;5.05;;;;;;;;;;1049564;28;20021;-71
2023/12/02 02:41:56;;;;;;;6.78;4.50;;;;;;;;;;1047009;28;20024;-71
2023/12/02 02:42:26;;;;;;;14.23;5.43;;;;;;;;;;1045108;28;20070;-71
2023/12/02 02:42:57;;;;;;;62.85;8.07;;;;;;;;;;1046455;28;20020;-71
2023/12/02 02:43:27;;;;;;;5.03;4.30;;;;;;;;;;1046303;28;20407;-71
2023/12/02 02:43:58;;;;;;;12.60;5.95;;;;;;;;;;1042677;28;20029;-72
2023/12/02 02:44:28;;;;;;;14.25;8.48;;;;;;;;;;1041850;28;20531;-71
2023/12/02 02:44:59;;;;;;;5.93;4.03;;;;;;;;;;1042704;28;20017;-71
2023/12/02 02:45:29;;;;;;;7.32;5.18;;;;;;;;;;1040549;28;20025;-71
2023/12/02 02:46:00;;;;;;;36.65;7.80;;;;;;;;;;1044242;28;20803;-71
2023/12/02 02:46:31;;;;;;;9.80;6.55;;;;;;;;;;1043941;28;20020;-71
2023/12/02 02:47:01;;;;;;;6.65;4.90;;;;;;;;;;1043599;28;20906;-71
2023/12/02 02:47:32;;;;;;;3.17;2.42;;;;;;;;;;1048164;28;20115;-71
2023/12/02 02:48:02;;;;;;;6.97;4.35;;;;;;;;;;1047968;28;20020;-71
2023/12/02 02:48:33;;;;;;;11.13;4.82;;;;;;;;;;1048027;28;20028;-71
2023/12/02 02:49:03;;;;;;;8.80;4.65;;;;;;;;;;1048310;28;20028;-75
2023/12/02 02:49:34;;;;;;;7.32;5.50;;;;;;;;;;1046411;28;20131;-71
2023/12/02 02:50:05;;;;;;;9.82;5.82;;;;;;;;;;1047798;28;20191;-71
2023/12/02 02:50:35;;;;;;;4.57;3.10;;;;;;;;;;1047977;28;20085;-71
2023/12/02 02:51:06;;;;;;;16.45;10.20;;;;;;;;;;1048488;28;20454;-71
2023/12/02 02:51:39;;;;;;;12.55;3.88;;;;;;;;;;1047157;28;20313;-71
2023/12/02 02:52:11;;;;;;;7.15;4.53;;;;;;;;;;1039672;28;20029;-72
2023/12/02 02:52:42;;;;;;;9.38;4.95;;;;;;;;;;1043479;28;20056;-72
2023/12/02 02:53:13;;;;;;;11.98;5.82;;;;;;;;;;1043815;28;20134;-71
2023/12/02 02:53:43;;;;;;;17.33;8.25;;;;;;;;;;1039014;28;20147;-72
2023/12/02 02:54:14;;;;;;;4.68;4.25;;;;;;;;;;1040418;28;20124;-71
2023/12/02 02:54:44;;;;;;;10.88;7.40;;;;;;;;;;1041542;28;20107;-71
2023/12/02 02:55:15;;;;;;;7.72;6.93;;;;;;;;;;1040768;28;20058;-71
2023/12/02 02:55:45;;;;;;;3.42;3.17;;;;;;;;;;1041408;28;20170;-72
2023/12/02 02:56:16;;;;;;;19.40;4.82;;;;;;;;;;1043677;28;20032;-71
2023/12/02 02:56:46;;;;;;;12.85;4.45;;;;;;;;;;1043375;28;20040;-71
2023/12/02 02:57:19;;;;;;;6.50;4.55;;;;;;;;;;1043663;28;20034;-71
2023/12/02 02:57:50;;;;;;;10.30;4.65;;;;;;;;;;1041228;28;20025;-72
2023/12/02 02:58:21;;;;;;;14.48;4.45;;;;;;;;;;1043731;28;20096;-71
2023/12/02 02:58:51;;;;;;;7.85;5.07;;;;;;;;;;1043708;28;20106;-71
2023/12/02 02:59:22;;;;;;;9.48;5.93;;;;;;;;;;1042647;28;20067;-71
2023/12/02 02:59:52;;;;;;;12.38;6.22;;;;;;;;;;1046288;28;20078;-71
2023/12/02 03:00:23;;;;;;;16.75;5.88;;;;;;;;;;1047443;28;20047;-71
2023/12/02 03:00:53;;;;;;;10.77;6.50;;;;;;;;;;1047511;28;20024;-71
2023/12/02 03:01:24;;;;;;;10.77;7.80;;;;;;;;;;1046436;28;21543;-71
2023/12/02 03:01:54;;;;;;;7.97;4.20;;;;;;;;;;1048645;28;20024;-71
2023/12/02 03:02:25;;;;;;;21.42;7.00;;;;;;;;;;1046006;28;20055;-71
2023/12/02 03:02:56;;;;;;;4.78;4.15;;;;;;;;;;1043413;28;20021;-71
2023/12/02 03:03:28;;;;;;;9.05;5.03;;;;;;;;;;1043776;28;20464;-71